Time;durP1;ratioP1;P1;durP2;ratioP2;P2;SDS_P1;SDS_P2;PMS_P1;PMS_P2;Temp;Humidity;BMP_temperature;BMP_pressure;BME280_temperature;BME280_humidity;BME280_pressure;Samples;Min_cycle;Max_cycle;Signal;HPM_P1;HPM_P2
2021/08/28 00:02:34;;;;;;;0.68;0.68;;;;;;;11.41;88.74;100597.59;8603993;34;20411;-72
2021/08/28 00:07:37;;;;;;;0.75;0.75;;;;;;;11.42;88.76;100599.31;8603602;34;20141;-72
2021/08/28 00:12:42;;;;;;;1.45;0.95;;;;;;;11.53;89.15;100591.22;8604263;34;20214;-72
2021/08/28 00:17:46;;;;;;;0.75;0.75;;;;;;;11.60;88.98;100588.88;8603319;34;20254;-72
2021/08/28 00:22:49;;;;;;;1.55;0.80;;;;;;;11.52;88.54;100588.66;8603264;34;20276;-73
2021/08/28 00:27:53;;;;;;;1.35;0.93;;;;;;;11.42;88.69;100581.34;8602261;34;20199;-72
2021/08/28 00:32:56;;;;;;;0.47;0.47;;;;;;;11.40;88.74;100585.13;8603020;34;20169;-72
2021/08/28 00:37:59;;;;;;;0.57;0.57;;;;;;;11.45;89.05;100591.84;8602345;34;20138;-72
2021/08/28 00:43:06;;;;;;;0.98;0.98;;;;;;;11.47;88.99;100592.59;8578930;34;20385;-72
2021/08/28 00:48:12;;;;;;;0.47;0.47;;;;;;;11.54;89.11;100597.47;8602118;34;20284;-73
2021/08/28 00:53:17;;;;;;;3.60;1.05;;;;;;;11.52;89.06;100599.41;8602266;34;20263;-73
2021/08/28 00:58:22;;;;;;;0.82;0.82;;;;;;;11.52;88.93;100597.59;8578106;34;20197;-72
2021/08/28 01:03:30;;;;;;;0.90;0.90;;;;;;;11.49;88.81;100611.28;8578235;34;20185;-73
2021/08/28 01:08:41;;;;;;;1.08;1.08;;;;;;;11.49;88.98;100611.28;8601901;34;20195;-72
2021/08/28 01:14:09;;;;;;;1.60;1.50;;;;;;;11.57;88.84;100613.34;8601585;34;20252;-73
2021/08/28 01:19:23;;;;;;;2.25;0.90;;;;;;;11.63;88.95;100611.03;8578020;34;20180;-72
2021/08/28 01:24:27;;;;;;;22.55;2.33;;;;;;;11.63;89.27;100611.03;8600320;34;20880;-72
2021/08/28 01:29:33;;;;;;;0.60;0.60;;;;;;;11.68;89.34;100598.06;8601548;34;20197;-72
2021/08/28 01:34:39;;;;;;;1.85;1.40;;;;;;;11.61;89.57;100604.06;8600507;34;20189;-72
2021/08/28 01:39:47;;;;;;;0.88;0.88;;;;;;;11.65;89.53;100600.97;8576747;34;20192;-72
2021/08/28 01:45:02;;;;;;;1.55;1.05;;;;;;;11.63;89.35;100594.03;8599908;34;20189;-72
2021/08/28 01:50:11;;;;;;;0.77;0.77;;;;;;;11.65;89.70;100586.66;8600007;34;20184;-73
2021/08/28 01:55:15;;;;;;;1.95;1.40;;;;;;;11.67;89.60;100582.88;8576495;34;20235;-72
2021/08/28 02:00:32;;;;;;;1.65;1.27;;;;;;;11.70;89.67;100571.84;8576862;34;20126;-72
2021/08/28 02:05:42;;;;;;;0.55;0.55;;;;;;;11.69;89.73;100578.22;8599723;34;20185;-72
2021/08/28 02:10:52;;;;;;;1.58;1.48;;;;;;;11.68;89.59;100572.97;8576788;34;20568;-73
2021/08/28 02:16:04;;;;;;;1.13;1.13;;;;;;;11.72;89.73;100574.44;8576474;34;20222;-73
2021/08/28 02:21:09;;;;;;;1.45;1.35;;;;;;;11.75;89.84;100584.94;8600410;34;21330;-73
2021/08/28 02:26:20;;;;;;;1.95;1.58;;;;;;;11.62;89.79;100584.25;8576464;34;20445;-73
2021/08/28 02:31:32;;;;;;;1.10;1.05;;;;;;;11.65;89.73;100578.59;8576108;34;20243;-73
2021/08/28 02:36:42;;;;;;;2.40;2.10;;;;;;;11.62;90.27;100582.41;8576152;34;20587;-73
2021/08/28 02:41:49;;;;;;;2.38;1.67;;;;;;;11.57;90.41;100589.13;8576007;34;20477;-73
2021/08/28 02:46:54;;;;;;;1.40;0.82;;;;;;;11.57;90.96;100592.69;8575685;34;20220;-73
2021/08/28 02:52:00;;;;;;;0.75;0.75;;;;;;;11.72;90.24;100587.88;8602471;34;20262;-72
2021/08/28 02:57:06;;;;;;;6.75;2.13;;;;;;;11.65;89.92;100590.22;8603256;34;20189;-72
2021/08/28 03:02:11;;;;;;;3.25;2.05;;;;;;;11.75;90.09;100570.63;8581153;34;20199;-73
2021/08/28 03:07:17;;;;;;;0.90;0.90;;;;;;;11.72;90.02;100571.75;8580667;34;20238;-73
2021/08/28 03:12:20;;;;;;;0.40;0.40;;;;;;;11.71;90.48;100552.06;8581335;34;21835;-73
2021/08/28 03:17:26;;;;;;;1.23;1.23;;;;;;;11.70;90.46;100552.16;8579827;34;20189;-73
2021/08/28 03:22:29;;;;;;;3.80;1.08;;;;;;;11.79;90.29;100547.84;8602986;34;20197;-72
2021/08/28 03:27:35;;;;;;;2.65;2.55;;;;;;;11.84;90.33;100540.25;8580059;34;20203;-73
2021/08/28 03:32:43;;;;;;;2.58;2.47;;;;;;;11.84;90.24;100532.19;8580144;34;20279;-73
2021/08/28 03:37:48;;;;;;;1.30;1.27;;;;;;;11.90;90.21;100527.16;8579720;34;20185;-72
2021/08/28 03:42:52;;;;;;;1.60;1.15;;;;;;;11.94;90.47;100527.72;8579673;34;20160;-72
2021/08/28 03:47:58;;;;;;;5.95;2.03;;;;;;;12.03;90.36;100532.31;8605001;34;21610;-72
2021/08/28 03:53:01;;;;;;;6.93;2.22;;;;;;;12.10;90.13;100522.75;8581706;34;21398;-72
2021/08/28 03:58:04;;;;;;;1.95;1.80;;;;;;;12.12;90.49;100528.00;8581982;34;20723;-72
2021/08/28 04:03:09;;;;;;;2.20;2.00;;;;;;;12.14;90.21;100532.25;8580722;34;20568;-72
2021/08/28 04:08:13;;;;;;;2.65;2.47;;;;;;;12.21;90.18;100535.31;8580967;34;21462;-73
2021/08/28 04:13:21;;;;;;;0.90;0.90;;;;;;;12.19;90.37;100536.41;8604087;34;21021;-72
2021/08/28 04:18:27;;;;;;;1.02;1.02;;;;;;;12.04;90.37;100530.47;8580718;34;20157;-73
2021/08/28 04:23:39;;;;;;;0.85;0.85;;;;;;;11.58;92.65;100527.16;8580181;34;20216;-72
2021/08/28 04:28:50;;;;;;;1.63;1.30;;;;;;;11.66;91.79;100523.81;8604027;34;20288;-72
2021/08/28 04:33:56;;;;;;;1.30;1.30;;;;;;;11.87;90.94;100530.06;8602287;34;20185;-72
2021/08/28 04:39:00;;;;;;;1.83;1.30;;;;;;;11.99;90.71;100536.28;8579019;34;20150;-73
2021/08/28 04:44:03;;;;;;;1.27;1.20;;;;;;;12.03;90.26;100540.41;8579060;34;20580;-72
2021/08/28 04:49:17;;;;;;;1.38;1.13;;;;;;;11.95;90.23;100532.97;8579007;34;20432;-73
2021/08/28 04:54:32;;;;;;;5.05;1.08;;;;;;;11.93;90.41;100517.97;8578731;34;20188;-73
2021/08/28 04:59:36;;;;;;;2.35;2.15;;;;;;;11.99;90.44;100511.19;8601403;34;20201;-72
2021/08/28 05:04:59;;;;;;;5.88;3.63;;;;;;;11.83;90.77;100527.78;8602791;34;20153;-73
2021/08/28 05:10:03;;;;;;;9.73;6.00;;;;;;;11.57;91.26;100533.50;8601636;34;21205;-73
2021/08/28 05:15:10;;;;;;;13.30;7.93;;;;;;;11.77;91.02;100542.63;8577511;34;20141;-73
2021/08/28 05:20:30;;;;;;;12.93;8.27;;;;;;;11.80;90.82;100547.75;8577950;34;20199;-72
2021/08/28 05:25:59;;;;;;;13.02;7.85;;;;;;;11.84;90.96;100545.63;8601095;34;20192;-72
2021/08/28 05:31:05;;;;;;;10.52;6.72;;;;;;;11.81;90.85;100549.44;8577936;34;20208;-72
2021/08/28 05:36:10;;;;;;;9.02;6.15;;;;;;;11.90;90.16;100556.75;8575857;34;20594;-73
2021/08/28 05:41:32;;;;;;;10.20;6.80;;;;;;;11.97;90.48;100561.63;8600754;34;20953;-72
2021/08/28 05:46:35;;;;;;;11.50;6.95;;;;;;;11.96;90.63;100566.16;8576175;34;20330;-72
2021/08/28 05:51:56;;;;;;;10.95;7.30;;;;;;;12.04;90.43;100557.41;8599468;34;21278;-72
2021/08/28 05:57:00;;;;;;;10.02;6.43;;;;;;;12.02;90.29;100567.47;8575963;34;20189;-72
2021/08/28 06:02:05;;;;;;;9.82;5.80;;;;;;;12.08;90.00;100566.94;8576675;34;20145;-72
2021/08/28 06:07:13;;;;;;;10.32;6.07;;;;;;;12.20;90.80;100575.81;8576052;34;20242;-72
2021/08/28 06:12:18;;;;;;;9.40;5.93;;;;;;;12.27;90.73;100574.31;8600154;34;20219;-72
2021/08/28 06:17:40;;;;;;;8.18;5.10;;;;;;;12.22;90.16;100560.38;8600074;34;20468;-71
2021/08/28 06:22:45;;;;;;;6.15;4.03;;;;;;;12.14;90.62;100567.28;8575992;34;20181;-73
2021/08/28 06:27:49;;;;;;;5.28;3.65;;;;;;;12.23;90.49;100578.25;8575645;34;20584;-72
2021/08/28 06:32:55;;;;;;;8.48;5.30;;;;;;;12.30;90.93;100576.78;8575641;34;20192;-72
2021/08/28 06:38:02;;;;;;;7.07;4.88;;;;;;;12.53;90.53;100572.97;8597563;34;20146;-72
2021/08/28 06:43:27;;;;;;;5.25;4.45;;;;;;;12.48;90.93;100580.59;8597875;34;20336;-72
2021/08/28 06:48:49;;;;;;;6.60;4.90;;;;;;;12.75;91.58;100585.44;8596212;34;20272;-72
2021/08/28 06:54:12;;;;;;;7.78;4.88;;;;;;;12.88;90.91;100577.13;8596453;34;20150;-72
2021/08/28 06:59:47;;;;;;;8.50;5.57;;;;;;;12.69;90.20;100585.09;8525294;34;20196;-72
2021/08/28 07:05:16;;;;;;;9.63;7.35;;;;;;;12.51;90.22;100592.97;8598967;34;20222;-72
2021/08/28 07:10:25;;;;;;;12.02;8.40;;;;;;;12.50;90.67;100594.78;8575391;34;20259;-72
2021/08/28 07:15:30;;;;;;;12.10;8.02;;;;;;;12.66;90.97;100599.69;8575335;34;20618;-72
2021/08/28 07:20:33;;;;;;;14.23;9.10;;;;;;;12.68;90.21;100603.13;8576124;34;20482;-72
2021/08/28 07:25:39;;;;;;;15.68;9.70;;;;;;;12.65;90.50;100603.41;8574590;34;21503;-72
2021/08/28 07:30:42;;;;;;;15.68;9.82;;;;;;;12.85;90.95;100598.97;8574673;34;20177;-71
2021/08/28 07:35:46;;;;;;;13.50;9.52;;;;;;;13.08;91.11;100613.09;8576673;34;20185;-71
2021/08/28 07:40:50;;;;;;;13.30;8.70;;;;;;;13.36;91.02;100614.22;8579051;34;20269;-71
2021/08/28 07:45:53;;;;;;;14.15;8.88;;;;;;;13.25;90.11;100627.81;8578431;34;20169;-72
2021/08/28 07:51:02;;;;;;;13.77;9.43;;;;;;;13.28;90.58;100623.00;8579096;34;20962;-71
2021/08/28 07:56:07;;;;;;;13.77;8.65;;;;;;;13.32;90.45;100623.56;8546765;34;20227;-71
2021/08/28 08:01:13;;;;;;;12.27;8.65;;;;;;;13.36;90.49;100624.19;8578545;34;20187;-71
2021/08/28 08:06:21;;;;;;;14.07;8.82;;;;;;;13.66;90.92;100620.59;8563463;34;20204;-71
2021/08/28 08:11:25;;;;;;;10.90;8.07;;;;;;;14.01;91.01;100635.41;8603211;34;20966;-72
2021/08/28 08:16:47;;;;;;;9.00;4.80;;;;;;;14.11;89.87;100639.00;8604906;34;20268;-72
2021/08/28 08:22:11;;;;;;;12.55;6.68;;;;;;;14.06;89.65;100634.00;8589081;34;20346;-72
2021/08/28 08:27:30;;;;;;;12.30;7.63;;;;;;;14.13;89.13;100648.66;8578796;34;20172;-72
2021/08/28 08:32:47;;;;;;;11.45;7.65;;;;;;;14.23;90.49;100647.81;8579438;34;21040;-71
2021/08/28 08:37:52;;;;;;;11.65;7.60;;;;;;;14.30;90.01;100654.34;8579347;34;20672;-72
2021/08/28 08:43:00;;;;;;;10.95;6.95;;;;;;;14.57;90.45;100656.38;8579356;34;20189;-72
2021/08/28 08:48:05;;;;;;;10.02;7.20;;;;;;;15.09;90.19;100658.69;8578314;34;20185;-72
2021/08/28 08:53:10;;;;;;;8.38;6.85;;;;;;;15.48;89.25;100659.41;8578651;34;20536;-72
2021/08/28 08:58:18;;;;;;;9.82;6.85;;;;;;;16.08;89.88;100662.50;8575449;34;20200;-72
2021/08/28 09:03:39;;;;;;;10.52;7.18;;;;;;;16.28;88.02;100665.09;8577501;34;20184;-72
2021/08/28 09:08:45;;;;;;;10.48;6.90;;;;;;;16.46;87.50;100671.34;8601354;34;20245;-72
2021/08/28 09:13:50;;;;;;;10.02;6.13;;;;;;;16.50;87.45;100671.88;8601789;34;20183;-72
2021/08/28 09:18:54;;;;;;;8.02;5.78;;;;;;;16.59;87.79;100682.66;8601071;34;20189;-72
2021/08/28 09:24:00;;;;;;;7.40;6.03;;;;;;;17.47;87.04;100679.88;8602083;34;20189;-72
2021/08/28 09:29:09;;;;;;;8.95;6.03;;;;;;;17.29;85.15;100670.97;8601878;34;20204;-72
2021/08/28 09:34:19;;;;;;;6.43;5.38;;;;;;;17.27;85.12;100667.53;8600267;34;20242;-71
2021/08/28 09:39:38;;;;;;;8.20;6.00;;;;;;;18.07;85.16;100662.66;8600856;34;20211;-71
2021/08/28 09:44:44;;;;;;;6.05;5.18;;;;;;;17.79;81.79;100667.44;8600061;34;20189;-71
2021/08/28 09:49:50;;;;;;;5.38;4.63;;;;;;;17.29;84.77;100672.84;8600245;34;20547;-72
2021/08/28 09:54:56;;;;;;;5.30;4.78;;;;;;;16.84;84.53;100674.72;8599379;34;20351;-73
2021/08/28 10:00:04;;;;;;;7.10;4.88;;;;;;;17.08;85.25;100673.16;8600030;34;20189;-71
2021/08/28 10:05:13;;;;;;;5.22;4.10;;;;;;;17.74;80.78;100669.78;8599985;34;20259;-73
2021/08/28 10:10:19;;;;;;;4.28;3.75;;;;;;;19.11;74.87;100682.88;8599815;34;20172;-73
2021/08/28 10:15:24;;;;;;;4.00;3.35;;;;;;;20.43;74.25;100677.75;8599632;34;20190;-73
2021/08/28 10:20:29;;;;;;;3.72;3.20;;;;;;;20.79;74.69;100676.09;8598891;34;20193;-73
2021/08/28 10:25:35;;;;;;;3.90;3.50;;;;;;;21.76;69.41;100666.22;8600066;34;20440;-72
2021/08/28 10:30:39;;;;;;;2.35;2.15;;;;;;;21.65;64.49;100670.25;8575386;34;20272;-72
2021/08/28 10:35:43;;;;;;;2.95;2.22;;;;;;;21.85;65.08;100671.38;8601349;34;20236;-72
2021/08/28 10:40:48;;;;;;;3.47;2.40;;;;;;;21.62;60.13;100668.75;8602066;34;20193;-72
2021/08/28 10:45:52;;;;;;;2.47;2.22;;;;;;;21.12;69.68;100664.03;8599651;34;20205;-72
2021/08/28 10:51:23;;;;;;;2.20;2.00;;;;;;;21.70;66.99;100656.84;8591699;34;20308;-72
2021/08/28 10:56:39;;;;;;;1.83;1.73;;;;;;;24.35;59.05;100667.28;8599820;34;20662;-72
2021/08/28 11:01:59;;;;;;;1.90;1.70;;;;;;;23.25;56.62;100669.16;8595431;34;20831;-72
2021/08/28 11:07:27;;;;;;;2.67;1.88;;;;;;;20.96;56.22;100659.56;8590165;34;20224;-72
2021/08/28 11:12:32;;;;;;;2.33;2.20;;;;;;;20.09;60.28;100668.06;8594590;34;20275;-72
2021/08/28 11:17:47;;;;;;;2.83;2.55;;;;;;;20.06;59.95;100662.97;8601246;34;21420;-72
2021/08/28 11:22:50;;;;;;;3.05;2.50;;;;;;;21.07;58.67;100661.88;8602652;34;20562;-72
2021/08/28 11:27:56;;;;;;;3.83;2.58;;;;;;;22.85;53.34;100652.41;8603550;34;20283;-72
2021/08/28 11:33:03;;;;;;;3.10;2.75;;;;;;;24.83;48.40;100653.44;8604066;34;20239;-72
2021/08/28 11:38:08;;;;;;;3.38;2.97;;;;;;;23.01;51.17;100652.13;8601639;34;20577;-72
2021/08/28 11:43:11;;;;;;;4.15;3.60;;;;;;;21.74;53.59;100655.41;8602786;34;20583;-72
2021/08/28 11:48:15;;;;;;;3.95;3.55;;;;;;;20.36;56.50;100660.44;8602211;34;20280;-72
2021/08/28 11:53:26;;;;;;;5.93;4.25;;;;;;;18.69;64.29;100686.66;8602018;34;20664;-72
2021/08/28 11:58:30;;;;;;;0.75;0.70;;;;;;;15.79;80.00;100702.44;8601309;34;20185;-72
2021/08/28 12:03:35;;;;;;;0.35;0.35;;;;;;;14.94;85.58;100702.41;8602684;34;20181;-72
2021/08/28 12:08:41;;;;;;;0.20;0.20;;;;;;;15.01;88.01;100702.72;8578320;34;20199;-72
2021/08/28 12:13:49;;;;;;;0.68;0.68;;;;;;;14.97;88.20;100699.41;8600096;34;21523;-73
2021/08/28 12:19:08;;;;;;;1.45;1.35;;;;;;;15.07;88.60;100701.28;8601332;34;20243;-73
2021/08/28 12:24:17;;;;;;;1.48;1.38;;;;;;;15.52;90.62;100697.88;8601668;34;20313;-73
2021/08/28 12:29:23;;;;;;;0.73;0.73;;;;;;;16.09;90.35;100696.69;8578959;34;20152;-73
2021/08/28 12:34:30;;;;;;;0.45;0.45;;;;;;;16.57;89.72;100690.09;8602889;34;20258;-73
2021/08/28 12:39:35;;;;;;;1.20;1.13;;;;;;;16.77;88.76;100690.75;8602286;34;20718;-72
2021/08/28 12:44:39;;;;;;;1.05;0.95;;;;;;;17.16;88.14;100692.25;8601075;34;20193;-72
2021/08/28 12:49:44;;;;;;;0.95;0.95;;;;;;;17.66;88.77;100677.91;8601757;34;20657;-72
2021/08/28 12:54:51;;;;;;;0.77;0.77;;;;;;;18.93;79.06;100674.09;8600716;34;20197;-72
2021/08/28 12:59:57;;;;;;;0.30;0.30;;;;;;;19.49;80.19;100676.84;8601252;34;20224;-73
2021/08/28 13:05:03;;;;;;;0.70;0.70;;;;;;;21.68;74.80;100659.75;8600388;34;20604;-72
2021/08/28 13:10:11;;;;;;;0.38;0.38;;;;;;;21.72;76.74;100660.25;8600640;34;22050;-71
2021/08/28 13:15:34;;;;;;;0.40;0.40;;;;;;;21.42;74.05;100648.50;8599512;34;20467;-71
2021/08/28 13:20:41;;;;;;;0.70;0.70;;;;;;;20.38;74.58;100656.50;8599083;34;20203;-71
2021/08/28 13:25:46;;;;;;;3.60;1.58;;;;;;;18.83;76.06;100654.38;8596136;34;20228;-71
2021/08/28 13:30:53;;;;;;;0.68;0.63;;;;;;;17.29;76.83;100670.13;8592283;34;20167;-71
2021/08/28 13:36:05;;;;;;;1.02;1.02;;;;;;;16.09;81.49;100683.16;8597527;34;20598;-71
2021/08/28 13:41:08;;;;;;;0.50;0.50;;;;;;;16.06;84.24;100690.75;8597051;34;20525;-70
2021/08/28 13:46:11;;;;;;;0.25;0.25;;;;;;;16.63;84.08;100688.63;8599744;34;20917;-71
2021/08/28 13:51:15;;;;;;;0.60;0.60;;;;;;;16.39;82.87;100678.41;8600935;34;21166;-71
2021/08/28 13:56:19;;;;;;;1.55;0.60;;;;;;;16.29;84.01;100677.63;8602382;34;20330;-72
2021/08/28 14:01:22;;;;;;;2.85;1.27;;;;;;;16.09;83.71;100680.44;8601338;34;20153;-72
2021/08/28 14:06:29;;;;;;;0.63;0.63;;;;;;;16.11;84.74;100674.88;8600752;34;20904;-72
2021/08/28 14:11:32;;;;;;;1.75;1.00;;;;;;;16.28;85.07;100676.78;8601452;34;20215;-72
2021/08/28 14:16:35;;;;;;;0.47;0.47;;;;;;;16.67;83.81;100660.16;8601323;34;20188;-72
2021/08/28 14:21:40;;;;;;;0.30;0.30;;;;;;;17.08;83.33;100662.31;8599164;34;20868;-71
2021/08/28 14:26:43;;;;;;;0.68;0.68;;;;;;;17.48;81.45;100662.56;8600602;34;20630;-71
2021/08/28 14:31:46;;;;;;;0.73;0.50;;;;;;;17.70;81.13;100649.41;8601388;34;20536;-72
2021/08/28 14:36:52;;;;;;;0.77;0.77;;;;;;;18.72;77.34;100644.66;8601156;34;21951;-72
2021/08/28 14:41:55;;;;;;;0.68;0.68;;;;;;;19.73;75.36;100645.97;8600107;34;20263;-72
2021/08/28 14:46:58;;;;;;;0.47;0.47;;;;;;;18.66;76.36;100653.50;8607222;34;20333;-72
2021/08/28 14:52:04;;;;;;;1.05;1.05;;;;;;;17.92;77.48;100654.22;8609952;34;20185;-72
2021/08/28 14:57:07;;;;;;;0.68;0.68;;;;;;;17.83;79.57;100657.13;8609322;34;20300;-71
2021/08/28 15:02:10;;;;;;;0.30;0.30;;;;;;;17.62;80.58;100652.09;8609262;34;20522;-72
2021/08/28 15:07:15;;;;;;;1.85;0.32;;;;;;;17.77;81.73;100647.75;8608668;34;20165;-71
2021/08/28 15:12:18;;;;;;;0.47;0.47;;;;;;;17.20;80.33;100656.50;8608150;34;20191;-71
2021/08/28 15:17:21;;;;;;;0.30;0.30;;;;;;;16.94;80.49;100669.19;8609337;34;20689;-72
2021/08/28 15:22:26;;;;;;;0.38;0.38;;;;;;;16.91;78.71;100669.50;8609273;34;20226;-70
2021/08/28 15:27:29;;;;;;;0.40;0.40;;;;;;;17.11;78.47;100664.72;8608864;34;20280;-72
2021/08/28 15:32:32;;;;;;;0.20;0.20;;;;;;;17.14;80.39;100668.00;8609788;34;20698;-72
2021/08/28 15:37:37;;;;;;;0.30;0.30;;;;;;;16.60;78.09;100675.38;8607401;34;20264;-72
2021/08/28 15:42:40;;;;;;;0.35;0.35;;;;;;;16.57;78.88;100675.69;8607431;34;20219;-71
2021/08/28 15:47:44;;;;;;;0.20;0.20;;;;;;;16.40;79.87;100679.25;8606934;34;20185;-72
2021/08/28 15:52:48;;;;;;;0.50;0.50;;;;;;;16.10;80.67;100670.47;8606935;34;20696;-72
2021/08/28 15:57:52;;;;;;;0.32;0.32;;;;;;;15.97;82.32;100688.94;8604119;34;20219;-72
2021/08/28 16:02:55;;;;;;;0.15;0.15;;;;;;;15.90;82.52;100691.41;8601434;34;20932;-72
2021/08/28 16:08:00;;;;;;;0.20;0.20;;;;;;;15.82;83.81;100692.16;8600622;34;20154;-72
2021/08/28 16:13:03;;;;;;;0.47;0.40;;;;;;;15.90;83.70;100696.81;8601042;34;20763;-72
2021/08/28 16:18:06;;;;;;;0.88;0.88;;;;;;;15.96;83.75;100695.34;8601220;34;21386;-72
2021/08/28 16:23:11;;;;;;;0.52;0.52;;;;;;;15.83;83.80;100693.88;8601284;34;20623;-72
2021/08/28 16:28:14;;;;;;;0.65;0.65;;;;;;;15.86;83.73;100690.00;8601412;34;20586;-71
2021/08/28 16:33:18;;;;;;;0.73;0.73;;;;;;;15.71;83.19;100697.78;8602204;34;21247;-72
2021/08/28 16:38:22;;;;;;;0.50;0.50;;;;;;;15.58;83.72;100697.28;8601205;34;20251;-72
2021/08/28 16:43:25;;;;;;;0.95;0.95;;;;;;;15.68;84.39;100706.19;8601826;34;20855;-71
2021/08/28 16:48:29;;;;;;;0.82;0.82;;;;;;;15.60;84.24;100695.28;8602150;34;20235;-72
2021/08/28 16:53:33;;;;;;;0.75;0.63;;;;;;;15.45;83.62;100697.63;8600886;34;20215;-72
2021/08/28 16:58:37;;;;;;;0.82;0.82;;;;;;;15.43;84.58;100695.06;8600117;34;20643;-72
2021/08/28 17:03:43;;;;;;;0.80;0.75;;;;;;;15.35;85.12;100694.09;8601274;34;20179;-72
2021/08/28 17:08:48;;;;;;;0.65;0.65;;;;;;;15.27;84.47;100689.38;8600031;34;20158;-72
2021/08/28 17:13:51;;;;;;;0.40;0.40;;;;;;;15.18;84.63;100692.97;8601855;34;20177;-72
2021/08/28 17:18:54;;;;;;;0.77;0.73;;;;;;;15.05;85.12;100693.28;8600870;34;20440;-72
2021/08/28 17:23:59;;;;;;;0.20;0.20;;;;;;;14.93;85.65;100698.00;8601803;34;20189;-71
2021/08/28 17:29:02;;;;;;;0.57;0.57;;;;;;;14.82;86.00;100695.47;8601268;34;20185;-72
2021/08/28 17:34:05;;;;;;;5.45;2.00;;;;;;;14.74;86.61;100696.19;8603284;34;20193;-72
2021/08/28 17:39:09;;;;;;;1.77;1.00;;;;;;;14.69;86.29;100700.31;8597270;34;21156;-72
2021/08/28 17:44:13;;;;;;;0.20;0.20;;;;;;;14.56;86.24;100701.47;8598508;34;20183;-72
2021/08/28 17:49:19;;;;;;;0.20;0.20;;;;;;;14.57;86.63;100707.75;8595471;34;20238;-72
2021/08/28 17:54:24;;;;;;;0.30;0.30;;;;;;;14.52;86.56;100697.34;8598455;34;20168;-72
2021/08/28 17:59:28;;;;;;;0.55;0.55;;;;;;;14.43;86.89;100708.16;8598265;34;20196;-72
2021/08/28 18:04:31;;;;;;;0.70;0.70;;;;;;;14.29;87.01;100712.97;8591908;34;20185;-72
2021/08/28 18:09:35;;;;;;;0.20;0.20;;;;;;;14.26;87.44;100715.94;8601775;34;20637;-72
2021/08/28 18:14:40;;;;;;;0.75;0.63;;;;;;;14.14;88.11;100717.91;8600942;34;20250;-72
2021/08/28 18:19:43;;;;;;;0.85;0.85;;;;;;;14.08;87.72;100718.47;8600753;34;20276;-72
2021/08/28 18:24:48;;;;;;;0.60;0.60;;;;;;;14.04;87.87;100732.38;8600209;34;20158;-71
2021/08/28 18:29:51;;;;;;;1.98;0.50;;;;;;;13.99;88.14;100737.34;8600436;34;20247;-72
2021/08/28 18:34:54;;;;;;;2.40;0.80;;;;;;;13.96;88.11;100737.59;8600279;34;20219;-72
2021/08/28 18:39:58;;;;;;;0.80;0.80;;;;;;;13.95;88.38;100739.47;8599943;34;20296;-72
2021/08/28 18:45:01;;;;;;;0.63;0.63;;;;;;;13.90;88.40;100741.72;8600783;34;20431;-73
2021/08/28 18:50:06;;;;;;;2.20;1.25;;;;;;;13.96;88.52;100734.91;8601160;34;20438;-72
2021/08/28 18:55:12;;;;;;;1.65;1.02;;;;;;;13.95;88.43;100742.16;8599652;34;20288;-72
2021/08/28 19:00:16;;;;;;;0.82;0.60;;;;;;;13.92;88.34;100742.44;8599986;34;20240;-73
2021/08/28 19:05:21;;;;;;;0.30;0.30;;;;;;;14.02;88.29;100753.28;8600574;34;20251;-72
2021/08/28 19:10:25;;;;;;;1.45;1.45;;;;;;;13.98;88.36;100757.25;8601487;34;20228;-72
2021/08/28 19:15:28;;;;;;;1.02;0.88;;;;;;;13.91;88.51;100765.91;8599314;34;20145;-72
2021/08/28 19:20:31;;;;;;;0.38;0.38;;;;;;;13.93;88.46;100763.03;8599139;34;20931;-72
2021/08/28 19:25:36;;;;;;;1.65;0.88;;;;;;;13.96;88.71;100759.22;8598565;34;21685;-71
2021/08/28 19:30:39;;;;;;;1.13;1.05;;;;;;;13.86;88.45;100760.03;8577643;34;20275;-72
2021/08/28 19:35:42;;;;;;;0.50;0.50;;;;;;;13.89;88.44;100756.22;8603829;34;20186;-72
2021/08/28 19:40:46;;;;;;;1.45;1.35;;;;;;;13.84;88.53;100759.31;8603171;34;20242;-72
2021/08/28 19:45:49;;;;;;;0.30;0.30;;;;;;;13.85;88.30;100755.66;8602272;34;20542;-72
2021/08/28 19:50:52;;;;;;;1.63;1.58;;;;;;;13.83;88.49;100754.94;8602774;34;20960;-72
2021/08/28 19:55:57;;;;;;;3.10;1.50;;;;;;;13.82;88.49;100750.53;8602013;34;20452;-72
2021/08/28 20:01:00;;;;;;;0.55;0.55;;;;;;;13.85;88.43;100752.06;8602766;34;20208;-71
2021/08/28 20:06:03;;;;;;;6.30;1.65;;;;;;;13.83;88.00;100752.22;8602440;34;20682;-72
2021/08/28 20:11:07;;;;;;;1.05;0.98;;;;;;;13.81;88.33;100754.19;8603222;34;20181;-72
2021/08/28 20:16:10;;;;;;;0.20;0.20;;;;;;;13.81;88.19;100756.91;8601891;34;20150;-72
2021/08/28 20:21:13;;;;;;;1.25;1.00;;;;;;;13.83;88.30;100762.19;8602579;34;20203;-72
2021/08/28 20:26:18;;;;;;;5.93;2.15;;;;;;;13.73;87.48;100755.88;8601627;34;20154;-72
2021/08/28 20:31:21;;;;;;;0.77;0.77;;;;;;;13.74;87.49;100753.06;8601530;34;21465;-72
2021/08/28 20:36:24;;;;;;;0.80;0.80;;;;;;;13.73;87.63;100747.78;8601155;34;20199;-72
2021/08/28 20:41:28;;;;;;;0.20;0.20;;;;;;;13.70;87.24;100752.44;8601380;34;20678;-72
2021/08/28 20:46:31;;;;;;;0.98;0.95;;;;;;;13.68;87.16;100753.56;8601781;34;20448;-72
2021/08/28 20:51:35;;;;;;;0.65;0.65;;;;;;;13.67;87.41;100751.88;8604449;34;20756;-72
2021/08/28 20:56:39;;;;;;;0.55;0.43;;;;;;;13.63;87.42;100750.41;8578894;34;20262;-72
2021/08/28 21:01:42;;;;;;;1.17;1.00;;;;;;;13.58;87.01;100745.44;8602364;34;20189;-71
2021/08/28 21:06:45;;;;;;;1.42;1.35;;;;;;;13.61;87.10;100747.88;8601680;34;20181;-72
2021/08/28 21:11:50;;;;;;;1.42;1.33;;;;;;;13.64;87.61;100746.75;8601281;34;20177;-71
2021/08/28 21:16:53;;;;;;;1.00;1.00;;;;;;;13.59;87.32;100749.00;8600942;34;20208;-72
2021/08/28 21:21:56;;;;;;;0.85;0.85;;;;;;;13.55;87.10;100748.41;8601521;34;20211;-72
2021/08/28 21:27:01;;;;;;;1.00;0.50;;;;;;;13.56;87.90;100755.50;8600794;34;20204;-72
2021/08/28 21:32:05;;;;;;;8.18;1.33;;;;;;;13.56;87.59;100751.97;8601697;34;20215;-72
2021/08/28 21:37:08;;;;;;;1.20;0.55;;;;;;;13.60;87.89;100748.88;8600418;34;20188;-72
2021/08/28 21:42:12;;;;;;;3.10;1.73;;;;;;;13.52;87.71;100759.50;8600564;34;20703;-72
2021/08/28 21:47:15;;;;;;;1.15;1.15;;;;;;;13.55;88.14;100748.41;8600580;34;20452;-72
2021/08/28 21:52:18;;;;;;;1.13;1.05;;;;;;;13.55;88.50;100747.53;8600418;34;20474;-72
2021/08/28 21:57:23;;;;;;;2.63;1.95;;;;;;;13.55;88.50;100750.25;8598401;34;20453;-72
2021/08/28 22:02:26;;;;;;;1.45;1.35;;;;;;;13.56;88.14;100755.50;8599740;34;21737;-72
2021/08/28 22:07:29;;;;;;;0.63;0.63;;;;;;;13.52;88.27;100745.13;8598927;34;20189;-72
2021/08/28 22:12:33;;;;;;;1.70;1.23;;;;;;;13.45;88.07;100750.22;8599733;34;20177;-73
2021/08/28 22:17:36;;;;;;;0.88;0.88;;;;;;;13.48;88.48;100739.13;8542488;34;20167;-73
2021/08/28 22:22:40;;;;;;;0.90;0.90;;;;;;;13.45;88.49;100742.97;8542585;34;20181;-73
2021/08/28 22:27:45;;;;;;;1.38;1.05;;;;;;;13.43;88.44;100730.59;8541807;34;20197;-73
2021/08/28 22:32:50;;;;;;;0.65;0.65;;;;;;;13.37;88.35;100740.09;8542668;34;20908;-72
2021/08/28 22:37:53;;;;;;;1.02;0.93;;;;;;;13.38;88.57;100728.28;8542016;34;20444;-73
2021/08/28 22:42:58;;;;;;;1.75;1.58;;;;;;;13.34;88.46;100740.31;8542048;34;22008;-73
2021/08/28 22:48:01;;;;;;;1.20;1.15;;;;;;;13.35;88.32;100739.31;8541503;34;20181;-73
2021/08/28 22:53:04;;;;;;;4.97;2.08;;;;;;;13.34;88.07;100734.94;8542482;34;20845;-71
2021/08/28 22:58:08;;;;;;;0.90;0.90;;;;;;;13.36;88.62;100735.66;8553201;34;20320;-73
2021/08/28 23:03:11;;;;;;;0.93;0.93;;;;;;;13.31;88.34;100729.78;8542067;34;20541;-73
2021/08/28 23:08:14;;;;;;;1.02;0.90;;;;;;;13.34;88.22;100734.06;8545614;34;20840;-73
2021/08/28 23:13:18;;;;;;;1.33;1.23;;;;;;;13.30;88.13;100740.72;8547068;34;20564;-73
2021/08/28 23:18:22;;;;;;;0.55;0.55;;;;;;;13.30;88.35;100732.63;8546969;34;20627;-73
2021/08/28 23:23:25;;;;;;;0.57;0.57;;;;;;;13.28;88.65;100727.38;8548114;34;20623;-73
2021/08/28 23:28:29;;;;;;;5.53;0.82;;;;;;;13.30;88.53;100722.66;8547381;34;20150;-73
2021/08/28 23:33:32;;;;;;;0.70;0.70;;;;;;;13.25;88.47;100716.84;8546900;34;20239;-73
2021/08/28 23:38:35;;;;;;;2.60;0.95;;;;;;;13.24;88.78;100710.56;8546269;34;20186;-73
2021/08/28 23:43:40;;;;;;;0.85;0.73;;;;;;;13.27;88.92;100710.34;8546482;34;20185;-73